sensor_id;sensor_type;location;lat;lon;timestamp;P1;durP1;ratioP1;P2;durP2;ratioP2
24547;SDS011;12713;51.624;4.924;2022-08-27T00:00:36;7.38;;;4.00;;
24547;SDS011;12713;51.624;4.924;2022-08-27T00:03:02;11.43;;;3.75;;
24547;SDS011;12713;51.624;4.924;2022-08-27T00:05:28;7.38;;;3.72;;
24547;SDS011;12713;51.624;4.924;2022-08-27T00:07:54;5.55;;;2.67;;
24547;SDS011;12713;51.624;4.924;2022-08-27T00:10:21;6.82;;;3.50;;
24547;SDS011;12713;51.624;4.924;2022-08-27T00:12:48;9.63;;;3.70;;
24547;SDS011;12713;51.624;4.924;2022-08-27T00:15:15;7.82;;;3.70;;
24547;SDS011;12713;51.624;4.924;2022-08-27T00:17:42;5.88;;;3.15;;
24547;SDS011;12713;51.624;4.924;2022-08-27T00:20:09;10.70;;;4.47;;
24547;SDS011;12713;51.624;4.924;2022-08-27T00:22:36;8.45;;;3.30;;
24547;SDS011;12713;51.624;4.924;2022-08-27T00:25:02;6.32;;;3.45;;
24547;SDS011;12713;51.624;4.924;2022-08-27T00:27:28;7.35;;;3.08;;
24547;SDS011;12713;51.624;4.924;2022-08-27T00:29:54;6.07;;;2.85;;
24547;SDS011;12713;51.624;4.924;2022-08-27T00:32:20;8.40;;;3.55;;
24547;SDS011;12713;51.624;4.924;2022-08-27T00:34:46;9.20;;;3.80;;
24547;SDS011;12713;51.624;4.924;2022-08-27T00:37:12;6.45;;;3.28;;
24547;SDS011;12713;51.624;4.924;2022-08-27T00:39:39;7.45;;;3.53;;
24547;SDS011;12713;51.624;4.924;2022-08-27T00:42:05;7.22;;;4.00;;
24547;SDS011;12713;51.624;4.924;2022-08-27T00:44:31;5.53;;;3.35;;
24547;SDS011;12713;51.624;4.924;2022-08-27T00:46:58;10.57;;;3.40;;
24547;SDS011;12713;51.624;4.924;2022-08-27T00:49:31;8.50;;;3.88;;
24547;SDS011;12713;51.624;4.924;2022-08-27T00:52:00;12.75;;;3.65;;
24547;SDS011;12713;51.624;4.924;2022-08-27T00:54:27;7.03;;;3.70;;
24547;SDS011;12713;51.624;4.924;2022-08-27T00:56:54;7.05;;;3.60;;
24547;SDS011;12713;51.624;4.924;2022-08-27T00:59:22;6.70;;;3.55;;
24547;SDS011;12713;51.624;4.924;2022-08-27T01:01:48;12.32;;;4.43;;
24547;SDS011;12713;51.624;4.924;2022-08-27T01:04:34;7.75;;;3.92;;
24547;SDS011;12713;51.624;4.924;2022-08-27T01:07:02;7.65;;;4.00;;
24547;SDS011;12713;51.624;4.924;2022-08-27T01:09:28;7.30;;;3.72;;
24547;SDS011;12713;51.624;4.924;2022-08-27T01:11:54;7.72;;;4.20;;
24547;SDS011;12713;51.624;4.924;2022-08-27T01:14:22;9.93;;;3.92;;
24547;SDS011;12713;51.624;4.924;2022-08-27T01:16:49;6.55;;;3.22;;
24547;SDS011;12713;51.624;4.924;2022-08-27T01:19:28;7.28;;;4.43;;
24547;SDS011;12713;51.624;4.924;2022-08-27T01:24:41;9.77;;;4.60;;
24547;SDS011;12713;51.624;4.924;2022-08-27T01:27:09;7.93;;;4.03;;
24547;SDS011;12713;51.624;4.924;2022-08-27T01:29:35;9.43;;;4.95;;
24547;SDS011;12713;51.624;4.924;2022-08-27T01:32:06;7.72;;;5.22;;
24547;SDS011;12713;51.624;4.924;2022-08-27T01:34:33;11.93;;;5.00;;
24547;SDS011;12713;51.624;4.924;2022-08-27T01:37:00;9.38;;;4.28;;
24547;SDS011;12713;51.624;4.924;2022-08-27T01:39:26;6.70;;;4.30;;
24547;SDS011;12713;51.624;4.924;2022-08-27T01:41:52;8.02;;;4.40;;
24547;SDS011;12713;51.624;4.924;2022-08-27T01:44:18;7.55;;;4.70;;
24547;SDS011;12713;51.624;4.924;2022-08-27T01:46:44;9.45;;;4.80;;
24547;SDS011;12713;51.624;4.924;2022-08-27T01:49:10;7.65;;;4.57;;
24547;SDS011;12713;51.624;4.924;2022-08-27T01:51:36;7.85;;;4.65;;
24547;SDS011;12713;51.624;4.924;2022-08-27T01:54:02;9.40;;;4.88;;
24547;SDS011;12713;51.624;4.924;2022-08-27T01:56:28;9.07;;;5.30;;
24547;SDS011;12713;51.624;4.924;2022-08-27T01:58:54;11.65;;;5.40;;
24547;SDS011;12713;51.624;4.924;2022-08-27T02:01:20;9.40;;;4.20;;
24547;SDS011;12713;51.624;4.924;2022-08-27T02:03:46;7.38;;;4.68;;
24547;SDS011;12713;51.624;4.924;2022-08-27T02:06:15;11.00;;;4.88;;
24547;SDS011;12713;51.624;4.924;2022-08-27T02:08:41;7.22;;;4.38;;
24547;SDS011;12713;51.624;4.924;2022-08-27T02:11:07;8.48;;;4.53;;
24547;SDS011;12713;51.624;4.924;2022-08-27T02:13:34;8.85;;;5.07;;
24547;SDS011;12713;51.624;4.924;2022-08-27T02:16:00;5.75;;;4.50;;
24547;SDS011;12713;51.624;4.924;2022-08-27T02:18:26;7.63;;;4.57;;
24547;SDS011;12713;51.624;4.924;2022-08-27T02:20:52;7.68;;;4.20;;
24547;SDS011;12713;51.624;4.924;2022-08-27T02:23:18;8.55;;;5.32;;
24547;SDS011;12713;51.624;4.924;2022-08-27T02:25:44;8.32;;;4.63;;
24547;SDS011;12713;51.624;4.924;2022-08-27T02:28:13;10.05;;;5.00;;
24547;SDS011;12713;51.624;4.924;2022-08-27T02:30:39;11.25;;;4.28;;
24547;SDS011;12713;51.624;4.924;2022-08-27T02:33:05;7.80;;;4.50;;
24547;SDS011;12713;51.624;4.924;2022-08-27T02:35:32;6.55;;;4.72;;
24547;SDS011;12713;51.624;4.924;2022-08-27T02:37:59;8.18;;;3.65;;
24547;SDS011;12713;51.624;4.924;2022-08-27T02:40:26;9.02;;;4.63;;
24547;SDS011;12713;51.624;4.924;2022-08-27T02:42:52;5.63;;;3.50;;
24547;SDS011;12713;51.624;4.924;2022-08-27T02:45:18;9.13;;;4.18;;
24547;SDS011;12713;51.624;4.924;2022-08-27T02:47:45;7.68;;;4.65;;
24547;SDS011;12713;51.624;4.924;2022-08-27T02:50:12;8.10;;;4.50;;
24547;SDS011;12713;51.624;4.924;2022-08-27T02:52:38;8.73;;;4.15;;
24547;SDS011;12713;51.624;4.924;2022-08-27T02:55:04;8.93;;;5.25;;
24547;SDS011;12713;51.624;4.924;2022-08-27T02:57:30;9.10;;;4.72;;
24547;SDS011;12713;51.624;4.924;2022-08-27T02:59:56;7.68;;;4.55;;
24547;SDS011;12713;51.624;4.924;2022-08-27T03:02:22;8.35;;;4.97;;
24547;SDS011;12713;51.624;4.924;2022-08-27T03:04:49;6.38;;;4.53;;
24547;SDS011;12713;51.624;4.924;2022-08-27T03:07:15;8.80;;;4.38;;
24547;SDS011;12713;51.624;4.924;2022-08-27T03:09:41;10.20;;;4.13;;
24547;SDS011;12713;51.624;4.924;2022-08-27T03:12:07;7.72;;;4.07;;
24547;SDS011;12713;51.624;4.924;2022-08-27T03:14:33;5.28;;;3.35;;
24547;SDS011;12713;51.624;4.924;2022-08-27T03:16:59;6.55;;;3.60;;
24547;SDS011;12713;51.624;4.924;2022-08-27T03:19:45;7.68;;;4.30;;
24547;SDS011;12713;51.624;4.924;2022-08-27T03:22:12;10.73;;;3.65;;
24547;SDS011;12713;51.624;4.924;2022-08-27T03:24:38;5.68;;;3.88;;
24547;SDS011;12713;51.624;4.924;2022-08-27T03:27:05;7.22;;;4.10;;
24547;SDS011;12713;51.624;4.924;2022-08-27T03:29:31;8.05;;;4.80;;
24547;SDS011;12713;51.624;4.924;2022-08-27T03:31:58;12.20;;;4.38;;
24547;SDS011;12713;51.624;4.924;2022-08-27T03:34:25;5.72;;;4.00;;
24547;SDS011;12713;51.624;4.924;2022-08-27T03:36:51;8.02;;;3.70;;
24547;SDS011;12713;51.624;4.924;2022-08-27T03:39:17;9.43;;;3.70;;
24547;SDS011;12713;51.624;4.924;2022-08-27T03:41:43;7.95;;;4.28;;
24547;SDS011;12713;51.624;4.924;2022-08-27T03:44:09;9.43;;;4.05;;
24547;SDS011;12713;51.624;4.924;2022-08-27T03:46:36;9.13;;;4.72;;
24547;SDS011;12713;51.624;4.924;2022-08-27T03:49:02;9.80;;;4.50;;
24547;SDS011;12713;51.624;4.924;2022-08-27T03:51:28;5.50;;;3.47;;
24547;SDS011;12713;51.624;4.924;2022-08-27T03:53:54;7.07;;;3.33;;
24547;SDS011;12713;51.624;4.924;2022-08-27T03:56:20;7.93;;;3.95;;
24547;SDS011;12713;51.624;4.924;2022-08-27T03:58:46;7.10;;;3.58;;
24547;SDS011;12713;51.624;4.924;2022-08-27T04:01:12;6.57;;;3.67;;
24547;SDS011;12713;51.624;4.924;2022-08-27T04:03:38;10.55;;;4.00;;
24547;SDS011;12713;51.624;4.924;2022-08-27T04:06:04;5.45;;;3.58;;
24547;SDS011;12713;51.624;4.924;2022-08-27T04:08:30;6.97;;;3.60;;
24547;SDS011;12713;51.624;4.924;2022-08-27T04:10:57;10.63;;;3.78;;
24547;SDS011;12713;51.624;4.924;2022-08-27T04:13:23;9.50;;;4.00;;
24547;SDS011;12713;51.624;4.924;2022-08-27T04:15:50;6.55;;;2.85;;
24547;SDS011;12713;51.624;4.924;2022-08-27T04:18:17;6.22;;;3.63;;
24547;SDS011;12713;51.624;4.924;2022-08-27T04:20:44;5.90;;;2.88;;
24547;SDS011;12713;51.624;4.924;2022-08-27T04:23:10;7.80;;;3.60;;
24547;SDS011;12713;51.624;4.924;2022-08-27T04:25:39;10.65;;;3.60;;
24547;SDS011;12713;51.624;4.924;2022-08-27T04:28:06;8.90;;;3.95;;
24547;SDS011;12713;51.624;4.924;2022-08-27T04:30:32;7.50;;;3.38;;
24547;SDS011;12713;51.624;4.924;2022-08-27T04:32:58;7.97;;;4.15;;
24547;SDS011;12713;51.624;4.924;2022-08-27T04:35:24;8.32;;;3.50;;
24547;SDS011;12713;51.624;4.924;2022-08-27T04:37:50;6.43;;;3.88;;
24547;SDS011;12713;51.624;4.924;2022-08-27T04:40:16;8.75;;;4.47;;
24547;SDS011;12713;51.624;4.924;2022-08-27T04:42:42;8.18;;;4.57;;
24547;SDS011;12713;51.624;4.924;2022-08-27T04:45:09;9.10;;;4.97;;
24547;SDS011;12713;51.624;4.924;2022-08-27T04:47:35;13.45;;;4.35;;
24547;SDS011;12713;51.624;4.924;2022-08-27T04:50:01;7.80;;;3.90;;
24547;SDS011;12713;51.624;4.924;2022-08-27T04:52:28;6.20;;;3.80;;
24547;SDS011;12713;51.624;4.924;2022-08-27T04:54:54;8.35;;;4.30;;
24547;SDS011;12713;51.624;4.924;2022-08-27T04:57:20;10.00;;;4.57;;
24547;SDS011;12713;51.624;4.924;2022-08-27T04:59:46;6.28;;;3.90;;
24547;SDS011;12713;51.624;4.924;2022-08-27T05:02:12;10.68;;;4.25;;
24547;SDS011;12713;51.624;4.924;2022-08-27T05:04:39;11.38;;;4.22;;
24547;SDS011;12713;51.624;4.924;2022-08-27T05:07:08;8.07;;;3.72;;
24547;SDS011;12713;51.624;4.924;2022-08-27T05:09:34;8.38;;;3.92;;
24547;SDS011;12713;51.624;4.924;2022-08-27T05:12:00;7.65;;;3.42;;
24547;SDS011;12713;51.624;4.924;2022-08-27T05:14:26;8.02;;;3.60;;
24547;SDS011;12713;51.624;4.924;2022-08-27T05:16:57;6.32;;;3.65;;
24547;SDS011;12713;51.624;4.924;2022-08-27T05:19:23;8.43;;;3.60;;
24547;SDS011;12713;51.624;4.924;2022-08-27T05:21:50;6.65;;;3.85;;
24547;SDS011;12713;51.624;4.924;2022-08-27T05:24:17;6.57;;;3.60;;
24547;SDS011;12713;51.624;4.924;2022-08-27T05:26:43;7.93;;;4.00;;
24547;SDS011;12713;51.624;4.924;2022-08-27T05:29:09;8.68;;;3.97;;
24547;SDS011;12713;51.624;4.924;2022-08-27T05:31:36;8.95;;;4.07;;
24547;SDS011;12713;51.624;4.924;2022-08-27T05:34:02;10.23;;;3.75;;
24547;SDS011;12713;51.624;4.924;2022-08-27T05:36:30;6.95;;;3.70;;
24547;SDS011;12713;51.624;4.924;2022-08-27T05:38:57;9.20;;;3.75;;
24547;SDS011;12713;51.624;4.924;2022-08-27T05:41:55;7.15;;;3.88;;
24547;SDS011;12713;51.624;4.924;2022-08-27T05:44:21;8.00;;;3.72;;
24547;SDS011;12713;51.624;4.924;2022-08-27T05:46:47;9.55;;;4.20;;
24547;SDS011;12713;51.624;4.924;2022-08-27T05:49:13;9.40;;;3.47;;
24547;SDS011;12713;51.624;4.924;2022-08-27T05:51:40;8.00;;;3.60;;
24547;SDS011;12713;51.624;4.924;2022-08-27T05:54:09;4.75;;;3.30;;
24547;SDS011;12713;51.624;4.924;2022-08-27T05:56:40;7.97;;;3.35;;
24547;SDS011;12713;51.624;4.924;2022-08-27T05:59:07;6.38;;;3.30;;
24547;SDS011;12713;51.624;4.924;2022-08-27T06:01:52;7.85;;;4.15;;
24547;SDS011;12713;51.624;4.924;2022-08-27T06:04:19;6.13;;;3.30;;
24547;SDS011;12713;51.624;4.924;2022-08-27T06:06:49;7.00;;;3.83;;
24547;SDS011;12713;51.624;4.924;2022-08-27T06:09:19;8.10;;;3.22;;
24547;SDS011;12713;51.624;4.924;2022-08-27T06:11:45;11.48;;;3.92;;
24547;SDS011;12713;51.624;4.924;2022-08-27T06:14:12;6.38;;;3.17;;
24547;SDS011;12713;51.624;4.924;2022-08-27T06:16:38;4.90;;;2.90;;
24547;SDS011;12713;51.624;4.924;2022-08-27T06:19:05;7.70;;;4.38;;
24547;SDS011;12713;51.624;4.924;2022-08-27T06:21:31;8.75;;;3.45;;
24547;SDS011;12713;51.624;4.924;2022-08-27T06:23:58;7.35;;;3.38;;
24547;SDS011;12713;51.624;4.924;2022-08-27T06:26:24;9.57;;;2.95;;
24547;SDS011;12713;51.624;4.924;2022-08-27T06:28:51;7.53;;;3.72;;
24547;SDS011;12713;51.624;4.924;2022-08-27T06:31:18;4.85;;;2.80;;
24547;SDS011;12713;51.624;4.924;2022-08-27T06:33:45;10.73;;;4.10;;
24547;SDS011;12713;51.624;4.924;2022-08-27T06:36:12;6.75;;;3.80;;
24547;SDS011;12713;51.624;4.924;2022-08-27T06:38:39;7.90;;;2.95;;
24547;SDS011;12713;51.624;4.924;2022-08-27T06:41:07;5.65;;;3.20;;
24547;SDS011;12713;51.624;4.924;2022-08-27T06:43:35;6.85;;;2.78;;
24547;SDS011;12713;51.624;4.924;2022-08-27T06:46:05;8.30;;;3.45;;
24547;SDS011;12713;51.624;4.924;2022-08-27T06:48:32;5.47;;;2.55;;
24547;SDS011;12713;51.624;4.924;2022-08-27T06:50:58;9.48;;;2.97;;
24547;SDS011;12713;51.624;4.924;2022-08-27T06:53:24;7.68;;;3.45;;
24547;SDS011;12713;51.624;4.924;2022-08-27T06:55:50;5.47;;;2.95;;
24547;SDS011;12713;51.624;4.924;2022-08-27T06:58:17;7.68;;;3.20;;
24547;SDS011;12713;51.624;4.924;2022-08-27T07:00:43;7.65;;;3.53;;
24547;SDS011;12713;51.624;4.924;2022-08-27T07:03:10;7.55;;;3.45;;
24547;SDS011;12713;51.624;4.924;2022-08-27T07:05:42;7.80;;;2.75;;
24547;SDS011;12713;51.624;4.924;2022-08-27T07:08:14;9.98;;;3.33;;
24547;SDS011;12713;51.624;4.924;2022-08-27T07:10:40;7.07;;;3.23;;
24547;SDS011;12713;51.624;4.924;2022-08-27T07:13:07;7.82;;;3.75;;
24547;SDS011;12713;51.624;4.924;2022-08-27T07:15:33;7.57;;;3.03;;
24547;SDS011;12713;51.624;4.924;2022-08-27T07:17:59;6.57;;;3.50;;
24547;SDS011;12713;51.624;4.924;2022-08-27T07:20:25;9.40;;;3.13;;
24547;SDS011;12713;51.624;4.924;2022-08-27T07:22:51;6.15;;;3.45;;
24547;SDS011;12713;51.624;4.924;2022-08-27T07:25:18;4.55;;;3.15;;
24547;SDS011;12713;51.624;4.924;2022-08-27T07:27:48;6.63;;;2.72;;
24547;SDS011;12713;51.624;4.924;2022-08-27T07:30:15;7.95;;;3.45;;
24547;SDS011;12713;51.624;4.924;2022-08-27T07:32:42;11.38;;;3.20;;
24547;SDS011;12713;51.624;4.924;2022-08-27T07:35:11;7.00;;;3.05;;
24547;SDS011;12713;51.624;4.924;2022-08-27T07:37:37;10.43;;;3.35;;
24547;SDS011;12713;51.624;4.924;2022-08-27T07:40:05;9.27;;;2.88;;
24547;SDS011;12713;51.624;4.924;2022-08-27T07:42:31;8.57;;;3.03;;
24547;SDS011;12713;51.624;4.924;2022-08-27T07:45:16;8.60;;;3.10;;
24547;SDS011;12713;51.624;4.924;2022-08-27T07:47:42;8.70;;;2.63;;
24547;SDS011;12713;51.624;4.924;2022-08-27T07:50:15;7.28;;;2.63;;
24547;SDS011;12713;51.624;4.924;2022-08-27T07:52:41;9.23;;;3.22;;
24547;SDS011;12713;51.624;4.924;2022-08-27T07:55:09;10.00;;;3.38;;
24547;SDS011;12713;51.624;4.924;2022-08-27T07:57:35;6.10;;;3.17;;
24547;SDS011;12713;51.624;4.924;2022-08-27T08:00:05;8.23;;;3.65;;
24547;SDS011;12713;51.624;4.924;2022-08-27T08:02:34;8.63;;;3.40;;
24547;SDS011;12713;51.624;4.924;2022-08-27T08:05:03;8.52;;;2.72;;
24547;SDS011;12713;51.624;4.924;2022-08-27T08:07:30;5.85;;;2.70;;
24547;SDS011;12713;51.624;4.924;2022-08-27T08:09:56;7.20;;;2.75;;
24547;SDS011;12713;51.624;4.924;2022-08-27T08:12:25;6.88;;;2.75;;
24547;SDS011;12713;51.624;4.924;2022-08-27T08:14:51;10.05;;;3.15;;
24547;SDS011;12713;51.624;4.924;2022-08-27T08:17:21;7.00;;;2.60;;
24547;SDS011;12713;51.624;4.924;2022-08-27T08:19:48;6.65;;;3.78;;
24547;SDS011;12713;51.624;4.924;2022-08-27T08:22:18;7.30;;;2.95;;
24547;SDS011;12713;51.624;4.924;2022-08-27T08:24:44;10.45;;;2.75;;
24547;SDS011;12713;51.624;4.924;2022-08-27T08:27:10;8.55;;;3.05;;
24547;SDS011;12713;51.624;4.924;2022-08-27T08:29:36;5.47;;;2.90;;
24547;SDS011;12713;51.624;4.924;2022-08-27T08:32:03;8.90;;;3.15;;
24547;SDS011;12713;51.624;4.924;2022-08-27T08:34:29;10.13;;;3.65;;
24547;SDS011;12713;51.624;4.924;2022-08-27T08:36:55;5.93;;;2.83;;
24547;SDS011;12713;51.624;4.924;2022-08-27T08:39:22;8.77;;;3.00;;
24547;SDS011;12713;51.624;4.924;2022-08-27T08:41:53;6.47;;;3.10;;
24547;SDS011;12713;51.624;4.924;2022-08-27T08:44:27;9.02;;;3.50;;
24547;SDS011;12713;51.624;4.924;2022-08-27T08:47:00;8.82;;;3.33;;
24547;SDS011;12713;51.624;4.924;2022-08-27T08:52:07;6.72;;;3.50;;
24547;SDS011;12713;51.624;4.924;2022-08-27T08:54:35;6.53;;;2.95;;
24547;SDS011;12713;51.624;4.924;2022-08-27T08:57:06;8.52;;;2.65;;
24547;SDS011;12713;51.624;4.924;2022-08-27T08:59:44;6.82;;;2.75;;
24547;SDS011;12713;51.624;4.924;2022-08-27T09:02:12;8.75;;;2.95;;
24547;SDS011;12713;51.624;4.924;2022-08-27T09:04:38;6.55;;;3.17;;
24547;SDS011;12713;51.624;4.924;2022-08-27T09:07:06;8.35;;;2.58;;
24547;SDS011;12713;51.624;4.924;2022-08-27T09:12:20;8.13;;;2.83;;
24547;SDS011;12713;51.624;4.924;2022-08-27T09:17:15;6.88;;;2.38;;
24547;SDS011;12713;51.624;4.924;2022-08-27T09:19:41;5.28;;;2.30;;
24547;SDS011;12713;51.624;4.924;2022-08-27T09:26:59;6.20;;;2.35;;
24547;SDS011;12713;51.624;4.924;2022-08-27T09:29:26;7.40;;;2.50;;
24547;SDS011;12713;51.624;4.924;2022-08-27T09:31:57;8.85;;;2.97;;
24547;SDS011;12713;51.624;4.924;2022-08-27T09:34:25;6.32;;;2.30;;
24547;SDS011;12713;51.624;4.924;2022-08-27T09:36:56;8.68;;;2.47;;
24547;SDS011;12713;51.624;4.924;2022-08-27T09:39:24;6.15;;;2.45;;
24547;SDS011;12713;51.624;4.924;2022-08-27T09:41:52;7.88;;;2.63;;
24547;SDS011;12713;51.624;4.924;2022-08-27T09:44:18;4.57;;;2.50;;
24547;SDS011;12713;51.624;4.924;2022-08-27T09:46:51;6.40;;;2.50;;
24547;SDS011;12713;51.624;4.924;2022-08-27T09:49:17;6.03;;;2.20;;
24547;SDS011;12713;51.624;4.924;2022-08-27T09:51:54;5.45;;;2.70;;
24547;SDS011;12713;51.624;4.924;2022-08-27T09:54:37;6.40;;;2.30;;
24547;SDS011;12713;51.624;4.924;2022-08-27T09:57:05;7.88;;;2.80;;
24547;SDS011;12713;51.624;4.924;2022-08-27T09:59:39;6.07;;;2.15;;
24547;SDS011;12713;51.624;4.924;2022-08-27T10:04:34;5.70;;;2.10;;
24547;SDS011;12713;51.624;4.924;2022-08-27T10:07:26;10.10;;;2.85;;
24547;SDS011;12713;51.624;4.924;2022-08-27T10:12:50;5.05;;;2.80;;
24547;SDS011;12713;51.624;4.924;2022-08-27T10:15:18;6.45;;;2.30;;
24547;SDS011;12713;51.624;4.924;2022-08-27T10:20:43;6.25;;;2.30;;
24547;SDS011;12713;51.624;4.924;2022-08-27T10:23:20;4.38;;;2.95;;
24547;SDS011;12713;51.624;4.924;2022-08-27T10:28:53;5.03;;;2.45;;
24547;SDS011;12713;51.624;4.924;2022-08-27T10:47:24;6.93;;;2.40;;
24547;SDS011;12713;51.624;4.924;2022-08-27T10:52:40;12.02;;;3.95;;
24547;SDS011;12713;51.624;4.924;2022-08-27T10:55:56;7.05;;;2.90;;
24547;SDS011;12713;51.624;4.924;2022-08-27T11:00:44;9.45;;;2.97;;
24547;SDS011;12713;51.624;4.924;2022-08-27T11:03:35;7.57;;;2.88;;
24547;SDS011;12713;51.624;4.924;2022-08-27T11:06:05;7.57;;;2.55;;
24547;SDS011;12713;51.624;4.924;2022-08-27T11:08:40;7.03;;;2.78;;
24547;SDS011;12713;51.624;4.924;2022-08-27T11:11:10;8.80;;;3.30;;
24547;SDS011;12713;51.624;4.924;2022-08-27T11:13:40;13.15;;;3.50;;
24547;SDS011;12713;51.624;4.924;2022-08-27T11:16:17;11.32;;;3.47;;
24547;SDS011;12713;51.624;4.924;2022-08-27T11:18:53;7.85;;;2.38;;
24547;SDS011;12713;51.624;4.924;2022-08-27T11:21:26;6.00;;;3.28;;
24547;SDS011;12713;51.624;4.924;2022-08-27T11:23:59;4.47;;;2.50;;
24547;SDS011;12713;51.624;4.924;2022-08-27T11:26:28;8.13;;;2.95;;
24547;SDS011;12713;51.624;4.924;2022-08-27T11:29:05;6.72;;;2.15;;
24547;SDS011;12713;51.624;4.924;2022-08-27T11:31:33;6.68;;;2.58;;
24547;SDS011;12713;51.624;4.924;2022-08-27T11:39:43;5.30;;;1.80;;
24547;SDS011;12713;51.624;4.924;2022-08-27T11:45:03;4.57;;;1.95;;
24547;SDS011;12713;51.624;4.924;2022-08-27T11:47:29;7.07;;;1.90;;
24547;SDS011;12713;51.624;4.924;2022-08-27T11:49:57;9.60;;;1.92;;
24547;SDS011;12713;51.624;4.924;2022-08-27T11:52:26;6.80;;;1.98;;
24547;SDS011;12713;51.624;4.924;2022-08-27T11:55:07;6.03;;;2.10;;
24547;SDS011;12713;51.624;4.924;2022-08-27T11:57:34;12.25;;;2.72;;
24547;SDS011;12713;51.624;4.924;2022-08-27T12:03:07;6.45;;;1.90;;
24547;SDS011;12713;51.624;4.924;2022-08-27T12:06:26;5.75;;;1.65;;
24547;SDS011;12713;51.624;4.924;2022-08-27T12:08:31;7.15;;;1.80;;
24547;SDS011;12713;51.624;4.924;2022-08-27T12:13:41;3.53;;;1.40;;
24547;SDS011;12713;51.624;4.924;2022-08-27T12:16:13;6.07;;;1.40;;
24547;SDS011;12713;51.624;4.924;2022-08-27T12:26:41;5.43;;;1.52;;
24547;SDS011;12713;51.624;4.924;2022-08-27T12:34:43;2.85;;;1.25;;
24547;SDS011;12713;51.624;4.924;2022-08-27T12:37:11;7.63;;;1.80;;
24547;SDS011;12713;51.624;4.924;2022-08-27T12:39:38;5.43;;;1.80;;
24547;SDS011;12713;51.624;4.924;2022-08-27T12:42:11;8.77;;;1.48;;
24547;SDS011;12713;51.624;4.924;2022-08-27T12:44:37;3.38;;;1.20;;
24547;SDS011;12713;51.624;4.924;2022-08-27T12:47:05;4.25;;;1.77;;
24547;SDS011;12713;51.624;4.924;2022-08-27T12:49:35;3.30;;;1.85;;
24547;SDS011;12713;51.624;4.924;2022-08-27T12:57:51;4.72;;;1.63;;
24547;SDS011;12713;51.624;4.924;2022-08-27T13:00:21;5.35;;;1.90;;
24547;SDS011;12713;51.624;4.924;2022-08-27T13:02:53;7.35;;;1.77;;
24547;SDS011;12713;51.624;4.924;2022-08-27T13:05:25;3.95;;;1.65;;
24547;SDS011;12713;51.624;4.924;2022-08-27T13:07:51;2.92;;;1.52;;
24547;SDS011;12713;51.624;4.924;2022-08-27T13:10:28;2.83;;;1.63;;
24547;SDS011;12713;51.624;4.924;2022-08-27T13:13:05;7.55;;;1.75;;
24547;SDS011;12713;51.624;4.924;2022-08-27T13:15:32;4.70;;;1.70;;
24547;SDS011;12713;51.624;4.924;2022-08-27T13:17:59;7.25;;;1.92;;
24547;SDS011;12713;51.624;4.924;2022-08-27T13:20:26;6.78;;;1.70;;
24547;SDS011;12713;51.624;4.924;2022-08-27T13:22:52;5.22;;;1.83;;
24547;SDS011;12713;51.624;4.924;2022-08-27T13:25:31;4.25;;;1.98;;
24547;SDS011;12713;51.624;4.924;2022-08-27T13:30:31;3.35;;;1.83;;
24547;SDS011;12713;51.624;4.924;2022-08-27T13:32:58;5.93;;;2.00;;
24547;SDS011;12713;51.624;4.924;2022-08-27T13:35:27;6.40;;;1.83;;
24547;SDS011;12713;51.624;4.924;2022-08-27T13:37:56;7.63;;;1.70;;
24547;SDS011;12713;51.624;4.924;2022-08-27T13:40:33;5.38;;;1.60;;
24547;SDS011;12713;51.624;4.924;2022-08-27T13:43:01;4.47;;;1.70;;
24547;SDS011;12713;51.624;4.924;2022-08-27T13:45:28;3.35;;;1.60;;
24547;SDS011;12713;51.624;4.924;2022-08-27T13:47:58;5.32;;;1.67;;
24547;SDS011;12713;51.624;4.924;2022-08-27T13:50:26;4.88;;;1.40;;
24547;SDS011;12713;51.624;4.924;2022-08-27T13:53:00;7.18;;;1.67;;
24547;SDS011;12713;51.624;4.924;2022-08-27T13:55:45;6.50;;;1.50;;
24547;SDS011;12713;51.624;4.924;2022-08-27T13:58:19;4.15;;;1.75;;
24547;SDS011;12713;51.624;4.924;2022-08-27T14:00:46;4.30;;;1.80;;
24547;SDS011;12713;51.624;4.924;2022-08-27T14:04:19;3.88;;;1.67;;
24547;SDS011;12713;51.624;4.924;2022-08-27T14:06:07;6.63;;;2.03;;
24547;SDS011;12713;51.624;4.924;2022-08-27T14:08:34;4.60;;;1.70;;
24547;SDS011;12713;51.624;4.924;2022-08-27T14:11:07;4.35;;;1.73;;
24547;SDS011;12713;51.624;4.924;2022-08-27T14:13:41;5.05;;;2.03;;
24547;SDS011;12713;51.624;4.924;2022-08-27T14:16:13;4.07;;;1.48;;
24547;SDS011;12713;51.624;4.924;2022-08-27T14:18:48;4.73;;;1.70;;
24547;SDS011;12713;51.624;4.924;2022-08-27T14:21:15;3.25;;;1.50;;
24547;SDS011;12713;51.624;4.924;2022-08-27T14:23:41;6.05;;;1.90;;
24547;SDS011;12713;51.624;4.924;2022-08-27T14:26:07;5.35;;;1.50;;
24547;SDS011;12713;51.624;4.924;2022-08-27T14:28:33;5.45;;;1.50;;
24547;SDS011;12713;51.624;4.924;2022-08-27T14:31:00;4.25;;;1.52;;
24547;SDS011;12713;51.624;4.924;2022-08-27T14:33:26;6.95;;;1.58;;
24547;SDS011;12713;51.624;4.924;2022-08-27T14:35:52;3.67;;;1.65;;
24547;SDS011;12713;51.624;4.924;2022-08-27T14:38:22;4.43;;;1.48;;
24547;SDS011;12713;51.624;4.924;2022-08-27T14:40:54;8.82;;;1.80;;
24547;SDS011;12713;51.624;4.924;2022-08-27T14:43:21;5.57;;;1.60;;
24547;SDS011;12713;51.624;4.924;2022-08-27T14:45:48;5.13;;;1.58;;
24547;SDS011;12713;51.624;4.924;2022-08-27T14:48:20;5.88;;;1.55;;
24547;SDS011;12713;51.624;4.924;2022-08-27T14:50:47;5.15;;;1.20;;
24547;SDS011;12713;51.624;4.924;2022-08-27T14:53:13;4.78;;;1.60;;
24547;SDS011;12713;51.624;4.924;2022-08-27T14:55:39;7.03;;;2.25;;
24547;SDS011;12713;51.624;4.924;2022-08-27T14:58:05;5.15;;;1.98;;
24547;SDS011;12713;51.624;4.924;2022-08-27T15:00:31;3.78;;;1.60;;
24547;SDS011;12713;51.624;4.924;2022-08-27T15:02:57;5.65;;;1.75;;
24547;SDS011;12713;51.624;4.924;2022-08-27T15:05:24;5.68;;;1.33;;
24547;SDS011;12713;51.624;4.924;2022-08-27T15:07:50;6.00;;;1.30;;
24547;SDS011;12713;51.624;4.924;2022-08-27T15:10:18;5.03;;;1.55;;
24547;SDS011;12713;51.624;4.924;2022-08-27T15:12:44;7.07;;;1.67;;
24547;SDS011;12713;51.624;4.924;2022-08-27T15:15:10;8.35;;;2.00;;
24547;SDS011;12713;51.624;4.924;2022-08-27T15:17:37;6.00;;;1.42;;
24547;SDS011;12713;51.624;4.924;2022-08-27T15:20:04;2.42;;;1.27;;
24547;SDS011;12713;51.624;4.924;2022-08-27T15:22:32;5.32;;;1.77;;
24547;SDS011;12713;51.624;4.924;2022-08-27T15:27:56;5.28;;;1.25;;
24547;SDS011;12713;51.624;4.924;2022-08-27T15:30:24;4.82;;;1.58;;
24547;SDS011;12713;51.624;4.924;2022-08-27T15:33:06;6.57;;;1.63;;
24547;SDS011;12713;51.624;4.924;2022-08-27T15:35:35;3.80;;;1.48;;
24547;SDS011;12713;51.624;4.924;2022-08-27T15:38:02;5.20;;;1.42;;
24547;SDS011;12713;51.624;4.924;2022-08-27T15:40:30;2.85;;;1.55;;
24547;SDS011;12713;51.624;4.924;2022-08-27T15:43:04;3.05;;;1.33;;
24547;SDS011;12713;51.624;4.924;2022-08-27T15:45:30;5.25;;;1.20;;
24547;SDS011;12713;51.624;4.924;2022-08-27T15:47:59;3.22;;;1.42;;
24547;SDS011;12713;51.624;4.924;2022-08-27T15:50:26;7.95;;;1.85;;
24547;SDS011;12713;51.624;4.924;2022-08-27T15:52:56;4.03;;;1.42;;
24547;SDS011;12713;51.624;4.924;2022-08-27T15:55:29;2.92;;;1.10;;
24547;SDS011;12713;51.624;4.924;2022-08-27T16:00:22;3.92;;;1.40;;
24547;SDS011;12713;51.624;4.924;2022-08-27T16:02:48;6.20;;;1.73;;
24547;SDS011;12713;51.624;4.924;2022-08-27T16:05:15;7.65;;;1.60;;
24547;SDS011;12713;51.624;4.924;2022-08-27T16:07:41;5.75;;;1.67;;
24547;SDS011;12713;51.624;4.924;2022-08-27T16:10:08;3.03;;;1.40;;
24547;SDS011;12713;51.624;4.924;2022-08-27T16:12:38;6.63;;;2.00;;
24547;SDS011;12713;51.624;4.924;2022-08-27T16:15:04;4.47;;;1.40;;
24547;SDS011;12713;51.624;4.924;2022-08-27T16:17:30;5.15;;;1.90;;
24547;SDS011;12713;51.624;4.924;2022-08-27T16:19:57;5.85;;;1.77;;
24547;SDS011;12713;51.624;4.924;2022-08-27T16:22:23;7.13;;;1.42;;